sensor_id;sensor_type;location;lat;lon;timestamp;P1;durP1;ratioP1;P2;durP2;ratioP2
64789;SDS011;51223;51.816;5.862;2022-09-29T00:02:25;3.45;;;1.65;;
64789;SDS011;51223;51.816;5.862;2022-09-29T00:04:50;4.70;;;1.27;;
64789;SDS011;51223;51.816;5.862;2022-09-29T00:07:17;3.92;;;1.40;;
64789;SDS011;51223;51.816;5.862;2022-09-29T00:09:43;1.23;;;0.93;;
64789;SDS011;51223;51.816;5.862;2022-09-29T00:12:09;1.30;;;1.20;;
64789;SDS011;51223;51.816;5.862;2022-09-29T00:14:35;1.30;;;1.13;;
64789;SDS011;51223;51.816;5.862;2022-09-29T00:17:01;1.50;;;1.35;;
64789;SDS011;51223;51.816;5.862;2022-09-29T00:19:27;2.28;;;1.50;;
64789;SDS011;51223;51.816;5.862;2022-09-29T00:21:53;2.00;;;1.40;;
64789;SDS011;51223;51.816;5.862;2022-09-29T00:24:19;3.45;;;1.27;;
64789;SDS011;51223;51.816;5.862;2022-09-29T00:26:44;2.00;;;1.40;;
64789;SDS011;51223;51.816;5.862;2022-09-29T00:29:11;1.33;;;1.17;;
64789;SDS011;51223;51.816;5.862;2022-09-29T00:31:37;1.17;;;0.90;;
64789;SDS011;51223;51.816;5.862;2022-09-29T00:34:02;1.63;;;1.02;;
64789;SDS011;51223;51.816;5.862;2022-09-29T00:36:28;1.30;;;1.20;;
64789;SDS011;51223;51.816;5.862;2022-09-29T00:38:54;1.20;;;0.90;;
64789;SDS011;51223;51.816;5.862;2022-09-29T00:41:22;1.15;;;1.00;;
64789;SDS011;51223;51.816;5.862;2022-09-29T00:49:18;1.23;;;0.88;;
64789;SDS011;51223;51.816;5.862;2022-09-29T00:52:02;1.48;;;1.38;;
64789;SDS011;51223;51.816;5.862;2022-09-29T00:54:32;3.30;;;1.88;;
64789;SDS011;51223;51.816;5.862;2022-09-29T00:57:02;1.05;;;0.82;;
64789;SDS011;51223;51.816;5.862;2022-09-29T00:59:31;1.40;;;1.08;;
64789;SDS011;51223;51.816;5.862;2022-09-29T01:02:04;1.42;;;1.33;;
64789;SDS011;51223;51.816;5.862;2022-09-29T01:04:30;1.90;;;1.33;;
64789;SDS011;51223;51.816;5.862;2022-09-29T01:06:56;1.38;;;1.23;;
64789;SDS011;51223;51.816;5.862;2022-09-29T01:09:28;1.17;;;1.00;;
64789;SDS011;51223;51.816;5.862;2022-09-29T01:11:57;0.98;;;0.90;;
64789;SDS011;51223;51.816;5.862;2022-09-29T01:14:24;1.58;;;1.20;;
64789;SDS011;51223;51.816;5.862;2022-09-29T01:16:52;0.68;;;0.68;;
64789;SDS011;51223;51.816;5.862;2022-09-29T01:24:53;1.45;;;1.30;;
64789;SDS011;51223;51.816;5.862;2022-09-29T01:30:03;1.48;;;1.38;;
64789;SDS011;51223;51.816;5.862;2022-09-29T01:35:35;1.48;;;1.35;;
64789;SDS011;51223;51.816;5.862;2022-09-29T01:38:18;2.63;;;1.48;;
64789;SDS011;51223;51.816;5.862;2022-09-29T01:41:09;3.92;;;1.17;;
64789;SDS011;51223;51.816;5.862;2022-09-29T01:43:48;0.98;;;0.95;;
64789;SDS011;51223;51.816;5.862;2022-09-29T01:46:24;1.02;;;0.93;;
64789;SDS011;51223;51.816;5.862;2022-09-29T01:48:55;2.47;;;1.35;;
64789;SDS011;51223;51.816;5.862;2022-09-29T01:51:24;2.22;;;1.48;;
64789;SDS011;51223;51.816;5.862;2022-09-29T01:53:56;4.32;;;1.13;;
64789;SDS011;51223;51.816;5.862;2022-09-29T01:56:27;1.90;;;1.23;;
64789;SDS011;51223;51.816;5.862;2022-09-29T01:59:00;1.42;;;1.33;;
64789;SDS011;51223;51.816;5.862;2022-09-29T02:01:33;3.22;;;1.65;;
64789;SDS011;51223;51.816;5.862;2022-09-29T02:04:06;2.10;;;1.52;;
64789;SDS011;51223;51.816;5.862;2022-09-29T02:06:40;1.75;;;1.38;;
64789;SDS011;51223;51.816;5.862;2022-09-29T02:09:18;3.95;;;1.42;;
64789;SDS011;51223;51.816;5.862;2022-09-29T02:14:18;1.20;;;1.10;;
64789;SDS011;51223;51.816;5.862;2022-09-29T02:16:54;1.45;;;1.00;;
64789;SDS011;51223;51.816;5.862;2022-09-29T02:19:39;1.23;;;1.08;;
64789;SDS011;51223;51.816;5.862;2022-09-29T02:22:07;1.70;;;1.15;;
64789;SDS011;51223;51.816;5.862;2022-09-29T02:24:33;1.10;;;1.05;;
64789;SDS011;51223;51.816;5.862;2022-09-29T02:26:59;2.40;;;1.25;;
64789;SDS011;51223;51.816;5.862;2022-09-29T02:29:27;2.28;;;1.13;;
64789;SDS011;51223;51.816;5.862;2022-09-29T02:31:53;1.20;;;1.10;;
64789;SDS011;51223;51.816;5.862;2022-09-29T02:34:21;0.70;;;0.70;;
64789;SDS011;51223;51.816;5.862;2022-09-29T02:39:55;1.50;;;1.10;;
64789;SDS011;51223;51.816;5.862;2022-09-29T02:42:31;3.42;;;0.93;;
64789;SDS011;51223;51.816;5.862;2022-09-29T02:48:02;1.48;;;1.30;;
64789;SDS011;51223;51.816;5.862;2022-09-29T02:50:54;1.67;;;1.33;;
64789;SDS011;51223;51.816;5.862;2022-09-29T02:53:41;2.63;;;1.85;;
64789;SDS011;51223;51.816;5.862;2022-09-29T02:56:23;2.38;;;1.65;;
64789;SDS011;51223;51.816;5.862;2022-09-29T03:01:31;2.15;;;1.45;;
64789;SDS011;51223;51.816;5.862;2022-09-29T03:03:58;3.25;;;1.33;;
64789;SDS011;51223;51.816;5.862;2022-09-29T03:06:24;1.00;;;0.90;;
64789;SDS011;51223;51.816;5.862;2022-09-29T03:08:50;5.45;;;2.08;;
64789;SDS011;51223;51.816;5.862;2022-09-29T03:11:16;2.70;;;2.05;;
64789;SDS011;51223;51.816;5.862;2022-09-29T03:13:42;2.13;;;1.58;;
64789;SDS011;51223;51.816;5.862;2022-09-29T03:16:08;2.65;;;1.60;;
64789;SDS011;51223;51.816;5.862;2022-09-29T03:18:33;1.92;;;1.30;;
64789;SDS011;51223;51.816;5.862;2022-09-29T03:20:59;2.42;;;1.83;;
64789;SDS011;51223;51.816;5.862;2022-09-29T03:23:25;2.63;;;1.75;;
64789;SDS011;51223;51.816;5.862;2022-09-29T03:25:51;1.60;;;1.30;;
64789;SDS011;51223;51.816;5.862;2022-09-29T03:28:17;3.67;;;1.70;;
64789;SDS011;51223;51.816;5.862;2022-09-29T03:30:43;1.90;;;1.67;;
64789;SDS011;51223;51.816;5.862;2022-09-29T03:33:09;1.88;;;1.33;;
64789;SDS011;51223;51.816;5.862;2022-09-29T03:35:36;2.92;;;1.52;;
64789;SDS011;51223;51.816;5.862;2022-09-29T03:38:02;2.30;;;1.88;;
64789;SDS011;51223;51.816;5.862;2022-09-29T03:40:28;2.25;;;1.67;;
64789;SDS011;51223;51.816;5.862;2022-09-29T03:42:54;1.77;;;1.35;;
64789;SDS011;51223;51.816;5.862;2022-09-29T03:45:20;2.08;;;1.25;;
64789;SDS011;51223;51.816;5.862;2022-09-29T03:47:46;4.90;;;1.90;;
64789;SDS011;51223;51.816;5.862;2022-09-29T03:50:12;4.70;;;1.67;;
64789;SDS011;51223;51.816;5.862;2022-09-29T03:52:38;3.80;;;1.55;;
64789;SDS011;51223;51.816;5.862;2022-09-29T03:55:04;2.25;;;1.85;;
64789;SDS011;51223;51.816;5.862;2022-09-29T03:57:30;1.40;;;1.15;;
64789;SDS011;51223;51.816;5.862;2022-09-29T03:59:56;1.73;;;1.27;;
64789;SDS011;51223;51.816;5.862;2022-09-29T04:02:22;1.88;;;1.27;;
64789;SDS011;51223;51.816;5.862;2022-09-29T04:04:47;3.63;;;1.35;;
64789;SDS011;51223;51.816;5.862;2022-09-29T04:07:13;1.33;;;1.23;;
64789;SDS011;51223;51.816;5.862;2022-09-29T04:09:39;1.58;;;1.30;;
64789;SDS011;51223;51.816;5.862;2022-09-29T04:12:05;6.50;;;1.88;;
64789;SDS011;51223;51.816;5.862;2022-09-29T04:14:31;1.50;;;1.40;;
64789;SDS011;51223;51.816;5.862;2022-09-29T04:16:56;2.83;;;1.63;;
64789;SDS011;51223;51.816;5.862;2022-09-29T04:19:22;1.98;;;1.65;;
64789;SDS011;51223;51.816;5.862;2022-09-29T04:21:49;1.67;;;1.50;;
64789;SDS011;51223;51.816;5.862;2022-09-29T04:24:14;1.33;;;1.15;;
64789;SDS011;51223;51.816;5.862;2022-09-29T04:26:40;0.90;;;0.75;;
64789;SDS011;51223;51.816;5.862;2022-09-29T04:29:06;1.85;;;1.65;;
64789;SDS011;51223;51.816;5.862;2022-09-29T04:31:32;2.00;;;1.75;;
64789;SDS011;51223;51.816;5.862;2022-09-29T04:33:58;1.50;;;1.35;;
64789;SDS011;51223;51.816;5.862;2022-09-29T04:36:23;1.88;;;1.67;;
64789;SDS011;51223;51.816;5.862;2022-09-29T04:38:50;1.58;;;1.30;;
64789;SDS011;51223;51.816;5.862;2022-09-29T04:41:16;1.23;;;1.13;;
64789;SDS011;51223;51.816;5.862;2022-09-29T04:43:42;1.90;;;1.48;;
64789;SDS011;51223;51.816;5.862;2022-09-29T04:46:08;3.17;;;2.00;;
64789;SDS011;51223;51.816;5.862;2022-09-29T04:48:34;3.60;;;2.20;;
64789;SDS011;51223;51.816;5.862;2022-09-29T04:51:01;1.85;;;1.40;;
64789;SDS011;51223;51.816;5.862;2022-09-29T04:53:27;1.65;;;1.25;;
64789;SDS011;51223;51.816;5.862;2022-09-29T04:55:53;2.10;;;1.30;;
64789;SDS011;51223;51.816;5.862;2022-09-29T04:58:18;1.48;;;1.38;;
64789;SDS011;51223;51.816;5.862;2022-09-29T05:00:44;1.45;;;1.35;;
64789;SDS011;51223;51.816;5.862;2022-09-29T05:03:10;2.97;;;2.20;;
64789;SDS011;51223;51.816;5.862;2022-09-29T05:05:36;4.57;;;1.35;;
64789;SDS011;51223;51.816;5.862;2022-09-29T05:08:02;3.58;;;1.95;;
64789;SDS011;51223;51.816;5.862;2022-09-29T05:10:29;2.78;;;2.20;;
64789;SDS011;51223;51.816;5.862;2022-09-29T05:12:55;2.85;;;2.25;;
64789;SDS011;51223;51.816;5.862;2022-09-29T05:15:21;9.52;;;2.35;;
64789;SDS011;51223;51.816;5.862;2022-09-29T05:17:48;2.47;;;2.10;;
64789;SDS011;51223;51.816;5.862;2022-09-29T05:20:13;2.33;;;1.45;;
64789;SDS011;51223;51.816;5.862;2022-09-29T05:22:41;5.22;;;1.70;;
64789;SDS011;51223;51.816;5.862;2022-09-29T05:25:07;5.80;;;2.60;;
64789;SDS011;51223;51.816;5.862;2022-09-29T05:27:36;2.95;;;2.03;;
64789;SDS011;51223;51.816;5.862;2022-09-29T05:30:02;1.58;;;1.27;;
64789;SDS011;51223;51.816;5.862;2022-09-29T05:32:29;2.20;;;1.85;;
64789;SDS011;51223;51.816;5.862;2022-09-29T05:34:55;1.85;;;1.33;;
64789;SDS011;51223;51.816;5.862;2022-09-29T05:37:22;2.00;;;1.45;;
64789;SDS011;51223;51.816;5.862;2022-09-29T05:39:48;1.38;;;1.27;;
64789;SDS011;51223;51.816;5.862;2022-09-29T05:42:14;1.10;;;1.00;;
64789;SDS011;51223;51.816;5.862;2022-09-29T05:44:39;1.52;;;1.35;;
64789;SDS011;51223;51.816;5.862;2022-09-29T05:47:05;2.15;;;1.95;;
64789;SDS011;51223;51.816;5.862;2022-09-29T05:49:31;3.58;;;2.40;;
64789;SDS011;51223;51.816;5.862;2022-09-29T05:51:58;2.08;;;1.70;;
64789;SDS011;51223;51.816;5.862;2022-09-29T05:54:24;2.97;;;1.98;;
64789;SDS011;51223;51.816;5.862;2022-09-29T05:56:52;1.42;;;1.33;;
64789;SDS011;51223;51.816;5.862;2022-09-29T05:59:18;2.85;;;1.98;;
64789;SDS011;51223;51.816;5.862;2022-09-29T06:01:44;2.20;;;1.80;;
64789;SDS011;51223;51.816;5.862;2022-09-29T06:04:09;2.13;;;1.45;;
64789;SDS011;51223;51.816;5.862;2022-09-29T06:06:35;1.85;;;1.48;;
64789;SDS011;51223;51.816;5.862;2022-09-29T06:09:01;3.17;;;2.50;;
64789;SDS011;51223;51.816;5.862;2022-09-29T06:11:28;2.17;;;1.88;;
64789;SDS011;51223;51.816;5.862;2022-09-29T06:13:56;3.45;;;1.73;;
64789;SDS011;51223;51.816;5.862;2022-09-29T06:16:26;1.90;;;1.38;;
64789;SDS011;51223;51.816;5.862;2022-09-29T06:18:53;2.47;;;2.03;;
64789;SDS011;51223;51.816;5.862;2022-09-29T06:21:20;1.35;;;1.25;;
64789;SDS011;51223;51.816;5.862;2022-09-29T06:23:48;1.98;;;1.63;;
64789;SDS011;51223;51.816;5.862;2022-09-29T06:26:15;2.35;;;1.48;;
64789;SDS011;51223;51.816;5.862;2022-09-29T06:28:45;3.15;;;2.28;;
64789;SDS011;51223;51.816;5.862;2022-09-29T06:31:11;2.38;;;2.10;;
64789;SDS011;51223;51.816;5.862;2022-09-29T06:33:39;1.95;;;1.75;;
64789;SDS011;51223;51.816;5.862;2022-09-29T06:38:58;3.30;;;2.92;;
64789;SDS011;51223;51.816;5.862;2022-09-29T06:41:24;3.42;;;2.10;;
64789;SDS011;51223;51.816;5.862;2022-09-29T06:43:51;5.47;;;3.03;;
64789;SDS011;51223;51.816;5.862;2022-09-29T06:46:17;2.72;;;2.17;;
64789;SDS011;51223;51.816;5.862;2022-09-29T06:48:44;4.25;;;2.85;;
64789;SDS011;51223;51.816;5.862;2022-09-29T06:51:10;3.97;;;3.35;;
64789;SDS011;51223;51.816;5.862;2022-09-29T06:53:36;3.55;;;2.55;;
64789;SDS011;51223;51.816;5.862;2022-09-29T06:56:02;4.38;;;2.72;;
64789;SDS011;51223;51.816;5.862;2022-09-29T06:58:28;3.03;;;2.30;;
64789;SDS011;51223;51.816;5.862;2022-09-29T07:00:54;5.78;;;4.05;;
64789;SDS011;51223;51.816;5.862;2022-09-29T07:03:24;6.25;;;3.13;;
64789;SDS011;51223;51.816;5.862;2022-09-29T07:05:50;4.57;;;3.47;;
64789;SDS011;51223;51.816;5.862;2022-09-29T07:08:15;3.78;;;2.90;;
64789;SDS011;51223;51.816;5.862;2022-09-29T07:10:41;6.07;;;4.05;;
64789;SDS011;51223;51.816;5.862;2022-09-29T07:13:07;4.35;;;3.00;;
64789;SDS011;51223;51.816;5.862;2022-09-29T07:15:34;5.90;;;4.03;;
64789;SDS011;51223;51.816;5.862;2022-09-29T07:18:00;7.78;;;4.65;;
64789;SDS011;51223;51.816;5.862;2022-09-29T07:20:26;5.07;;;2.03;;
64789;SDS011;51223;51.816;5.862;2022-09-29T07:22:53;5.68;;;3.92;;
64789;SDS011;51223;51.816;5.862;2022-09-29T07:25:20;5.40;;;3.88;;
64789;SDS011;51223;51.816;5.862;2022-09-29T07:27:46;4.40;;;3.47;;
64789;SDS011;51223;51.816;5.862;2022-09-29T07:30:12;8.48;;;4.07;;
64789;SDS011;51223;51.816;5.862;2022-09-29T07:32:38;6.80;;;4.38;;
64789;SDS011;51223;51.816;5.862;2022-09-29T07:35:04;6.10;;;3.90;;
64789;SDS011;51223;51.816;5.862;2022-09-29T07:37:31;5.38;;;4.03;;
64789;SDS011;51223;51.816;5.862;2022-09-29T07:39:57;7.22;;;4.13;;
64789;SDS011;51223;51.816;5.862;2022-09-29T07:42:23;5.97;;;4.20;;
64789;SDS011;51223;51.816;5.862;2022-09-29T07:44:49;4.97;;;3.65;;
64789;SDS011;51223;51.816;5.862;2022-09-29T07:47:15;3.40;;;2.38;;
64789;SDS011;51223;51.816;5.862;2022-09-29T07:49:41;3.80;;;2.90;;
64789;SDS011;51223;51.816;5.862;2022-09-29T07:52:07;2.65;;;2.25;;
64789;SDS011;51223;51.816;5.862;2022-09-29T07:54:33;5.35;;;3.08;;
64789;SDS011;51223;51.816;5.862;2022-09-29T07:56:59;4.50;;;2.47;;
64789;SDS011;51223;51.816;5.862;2022-09-29T07:59:27;3.28;;;2.30;;
64789;SDS011;51223;51.816;5.862;2022-09-29T08:01:53;3.33;;;2.90;;
64789;SDS011;51223;51.816;5.862;2022-09-29T08:04:19;4.65;;;3.13;;
64789;SDS011;51223;51.816;5.862;2022-09-29T08:06:45;2.22;;;2.00;;
64789;SDS011;51223;51.816;5.862;2022-09-29T08:09:12;3.58;;;2.88;;
64789;SDS011;51223;51.816;5.862;2022-09-29T08:11:39;6.22;;;3.25;;
64789;SDS011;51223;51.816;5.862;2022-09-29T08:14:07;6.40;;;3.95;;
64789;SDS011;51223;51.816;5.862;2022-09-29T08:16:33;3.90;;;2.83;;
64789;SDS011;51223;51.816;5.862;2022-09-29T08:19:00;5.15;;;3.10;;
64789;SDS011;51223;51.816;5.862;2022-09-29T08:21:27;7.18;;;3.13;;
64789;SDS011;51223;51.816;5.862;2022-09-29T08:23:54;2.65;;;2.17;;
64789;SDS011;51223;51.816;5.862;2022-09-29T08:26:20;2.55;;;2.25;;
64789;SDS011;51223;51.816;5.862;2022-09-29T08:28:47;6.40;;;3.38;;
64789;SDS011;51223;51.816;5.862;2022-09-29T08:31:17;3.20;;;2.72;;
64789;SDS011;51223;51.816;5.862;2022-09-29T08:33:46;4.00;;;3.03;;
64789;SDS011;51223;51.816;5.862;2022-09-29T08:36:14;3.25;;;2.58;;
64789;SDS011;51223;51.816;5.862;2022-09-29T08:38:41;4.97;;;3.08;;
64789;SDS011;51223;51.816;5.862;2022-09-29T08:44:05;5.03;;;2.92;;
64789;SDS011;51223;51.816;5.862;2022-09-29T08:49:13;9.15;;;3.53;;
64789;SDS011;51223;51.816;5.862;2022-09-29T08:51:52;3.42;;;2.80;;
64789;SDS011;51223;51.816;5.862;2022-09-29T08:54:32;7.45;;;3.65;;
64789;SDS011;51223;51.816;5.862;2022-09-29T08:57:00;5.25;;;2.65;;
64789;SDS011;51223;51.816;5.862;2022-09-29T08:59:27;4.40;;;3.05;;
64789;SDS011;51223;51.816;5.862;2022-09-29T09:13:13;4.88;;;3.13;;
64789;SDS011;51223;51.816;5.862;2022-09-29T09:18:47;4.90;;;3.42;;
64789;SDS011;51223;51.816;5.862;2022-09-29T09:21:30;4.65;;;3.33;;
64789;SDS011;51223;51.816;5.862;2022-09-29T09:24:07;4.30;;;3.17;;
64789;SDS011;51223;51.816;5.862;2022-09-29T09:26:42;4.47;;;3.47;;
64789;SDS011;51223;51.816;5.862;2022-09-29T09:31:57;4.55;;;3.22;;
64789;SDS011;51223;51.816;5.862;2022-09-29T09:34:29;6.95;;;2.92;;
64789;SDS011;51223;51.816;5.862;2022-09-29T09:37:10;5.40;;;4.00;;
64789;SDS011;51223;51.816;5.862;2022-09-29T09:42:26;5.05;;;3.30;;
64789;SDS011;51223;51.816;5.862;2022-09-29T09:44:57;6.40;;;2.75;;
64789;SDS011;51223;51.816;5.862;2022-09-29T09:47:28;4.70;;;3.33;;
64789;SDS011;51223;51.816;5.862;2022-09-29T09:49:59;3.45;;;2.55;;
64789;SDS011;51223;51.816;5.862;2022-09-29T09:55:28;4.85;;;3.13;;
64789;SDS011;51223;51.816;5.862;2022-09-29T10:00:44;2.90;;;2.38;;
64789;SDS011;51223;51.816;5.862;2022-09-29T10:03:14;7.00;;;2.75;;
64789;SDS011;51223;51.816;5.862;2022-09-29T10:05:42;4.03;;;2.38;;
64789;SDS011;51223;51.816;5.862;2022-09-29T10:10:56;2.22;;;1.88;;
64789;SDS011;51223;51.816;5.862;2022-09-29T10:13:23;3.88;;;2.70;;
64789;SDS011;51223;51.816;5.862;2022-09-29T10:18:36;3.78;;;2.75;;
64789;SDS011;51223;51.816;5.862;2022-09-29T10:21:17;4.32;;;3.33;;
64789;SDS011;51223;51.816;5.862;2022-09-29T10:23:50;3.03;;;2.55;;
64789;SDS011;51223;51.816;5.862;2022-09-29T10:26:18;4.30;;;3.00;;
64789;SDS011;51223;51.816;5.862;2022-09-29T10:31:42;4.55;;;2.67;;
64789;SDS011;51223;51.816;5.862;2022-09-29T10:36:48;3.70;;;2.40;;
64789;SDS011;51223;51.816;5.862;2022-09-29T10:40:08;3.22;;;2.55;;
64789;SDS011;51223;51.816;5.862;2022-09-29T10:42:19;5.80;;;2.85;;
64789;SDS011;51223;51.816;5.862;2022-09-29T10:44:51;3.53;;;2.53;;
64789;SDS011;51223;51.816;5.862;2022-09-29T10:47:18;3.63;;;2.63;;
64789;SDS011;51223;51.816;5.862;2022-09-29T10:49:46;3.65;;;2.80;;
64789;SDS011;51223;51.816;5.862;2022-09-29T10:52:17;5.45;;;3.65;;
64789;SDS011;51223;51.816;5.862;2022-09-29T10:54:52;4.45;;;3.83;;
64789;SDS011;51223;51.816;5.862;2022-09-29T10:57:23;8.07;;;3.13;;
64789;SDS011;51223;51.816;5.862;2022-09-29T10:59:51;9.57;;;2.13;;
64789;SDS011;51223;51.816;5.862;2022-09-29T11:02:20;1.58;;;1.23;;
64789;SDS011;51223;51.816;5.862;2022-09-29T11:07:20;2.70;;;2.40;;
64789;SDS011;51223;51.816;5.862;2022-09-29T11:09:46;2.83;;;2.30;;
64789;SDS011;51223;51.816;5.862;2022-09-29T11:14:50;1.15;;;1.05;;
64789;SDS011;51223;51.816;5.862;2022-09-29T11:17:29;2.60;;;2.08;;
64789;SDS011;51223;51.816;5.862;2022-09-29T11:20:05;6.40;;;3.13;;
64789;SDS011;51223;51.816;5.862;2022-09-29T11:25:10;4.30;;;2.45;;
64789;SDS011;51223;51.816;5.862;2022-09-29T11:27:50;3.53;;;2.83;;
64789;SDS011;51223;51.816;5.862;2022-09-29T11:30:24;6.55;;;2.92;;
64789;SDS011;51223;51.816;5.862;2022-09-29T11:44:07;14.73;;;2.67;;
64789;SDS011;51223;51.816;5.862;2022-09-29T11:47:02;2.45;;;2.10;;
64789;SDS011;51223;51.816;5.862;2022-09-29T12:03:47;2.60;;;2.03;;
64789;SDS011;51223;51.816;5.862;2022-09-29T12:15:25;3.33;;;1.73;;
64789;SDS011;51223;51.816;5.862;2022-09-29T12:18:08;1.38;;;1.27;;
64789;SDS011;51223;51.816;5.862;2022-09-29T12:20:41;3.63;;;2.38;;
64789;SDS011;51223;51.816;5.862;2022-09-29T12:23:12;2.78;;;1.95;;
64789;SDS011;51223;51.816;5.862;2022-09-29T12:25:52;2.45;;;1.33;;
64789;SDS011;51223;51.816;5.862;2022-09-29T12:28:28;3.28;;;2.38;;
64789;SDS011;51223;51.816;5.862;2022-09-29T12:31:00;3.55;;;2.25;;
64789;SDS011;51223;51.816;5.862;2022-09-29T12:33:37;3.40;;;2.42;;
64789;SDS011;51223;51.816;5.862;2022-09-29T12:41:55;3.85;;;2.20;;
64789;SDS011;51223;51.816;5.862;2022-09-29T12:44:49;2.72;;;2.13;;
64789;SDS011;51223;51.816;5.862;2022-09-29T12:47:27;1.85;;;1.50;;
64789;SDS011;51223;51.816;5.862;2022-09-29T12:50:09;1.20;;;1.10;;
64789;SDS011;51223;51.816;5.862;2022-09-29T12:52:41;0.50;;;0.50;;
64789;SDS011;51223;51.816;5.862;2022-09-29T12:58:17;2.45;;;1.67;;
64789;SDS011;51223;51.816;5.862;2022-09-29T13:00:53;2.38;;;1.92;;
64789;SDS011;51223;51.816;5.862;2022-09-29T13:03:33;1.92;;;1.45;;
64789;SDS011;51223;51.816;5.862;2022-09-29T13:06:54;3.38;;;1.38;;
64789;SDS011;51223;51.816;5.862;2022-09-29T13:12:32;4.22;;;1.40;;
64789;SDS011;51223;51.816;5.862;2022-09-29T13:21:32;2.53;;;1.45;;
64789;SDS011;51223;51.816;5.862;2022-09-29T13:29:42;1.92;;;1.35;;
64789;SDS011;51223;51.816;5.862;2022-09-29T13:32:13;1.40;;;1.27;;
64789;SDS011;51223;51.816;5.862;2022-09-29T13:34:44;0.75;;;0.70;;
64789;SDS011;51223;51.816;5.862;2022-09-29T13:37:14;1.55;;;1.27;;
64789;SDS011;51223;51.816;5.862;2022-09-29T13:39:43;1.60;;;1.23;;
64789;SDS011;51223;51.816;5.862;2022-09-29T13:47:51;2.80;;;1.67;;
64789;SDS011;51223;51.816;5.862;2022-09-29T13:58:30;2.08;;;1.65;;
64789;SDS011;51223;51.816;5.862;2022-09-29T14:00:58;2.10;;;1.67;;
64789;SDS011;51223;51.816;5.862;2022-09-29T14:03:45;2.10;;;1.67;;
64789;SDS011;51223;51.816;5.862;2022-09-29T14:06:12;0.80;;;0.80;;
64789;SDS011;51223;51.816;5.862;2022-09-29T14:08:44;1.17;;;1.00;;
64789;SDS011;51223;51.816;5.862;2022-09-29T14:11:19;2.38;;;1.17;;
64789;SDS011;51223;51.816;5.862;2022-09-29T14:19:07;1.60;;;1.33;;
64789;SDS011;51223;51.816;5.862;2022-09-29T14:32:33;2.40;;;1.55;;
64789;SDS011;51223;51.816;5.862;2022-09-29T14:35:50;2.42;;;1.92;;
64789;SDS011;51223;51.816;5.862;2022-09-29T14:37:58;2.08;;;1.38;;
64789;SDS011;51223;51.816;5.862;2022-09-29T14:40:28;1.63;;;1.38;;
64789;SDS011;51223;51.816;5.862;2022-09-29T14:43:04;1.48;;;1.38;;
64789;SDS011;51223;51.816;5.862;2022-09-29T14:45:32;1.48;;;1.35;;
64789;SDS011;51223;51.816;5.862;2022-09-29T14:52:07;3.25;;;1.73;;
64789;SDS011;51223;51.816;5.862;2022-09-29T14:57:40;2.05;;;1.38;;
64789;SDS011;51223;51.816;5.862;2022-09-29T15:00:21;2.22;;;1.42;;
64789;SDS011;51223;51.816;5.862;2022-09-29T15:02:54;1.50;;;1.30;;
64789;SDS011;51223;51.816;5.862;2022-09-29T15:05:28;1.52;;;1.23;;
64789;SDS011;51223;51.816;5.862;2022-09-29T15:12:50;1.88;;;1.38;;
64789;SDS011;51223;51.816;5.862;2022-09-29T15:18:32;2.13;;;1.25;;
64789;SDS011;51223;51.816;5.862;2022-09-29T15:24:05;0.98;;;0.85;;
64789;SDS011;51223;51.816;5.862;2022-09-29T15:26:44;9.45;;;1.20;;
64789;SDS011;51223;51.816;5.862;2022-09-29T15:29:13;1.00;;;0.90;;
64789;SDS011;51223;51.816;5.862;2022-09-29T15:31:43;1.17;;;1.08;;
64789;SDS011;51223;51.816;5.862;2022-09-29T15:34:17;0.88;;;0.88;;
64789;SDS011;51223;51.816;5.862;2022-09-29T15:36:49;1.92;;;1.17;;
64789;SDS011;51223;51.816;5.862;2022-09-29T15:42:01;3.78;;;1.58;;
64789;SDS011;51223;51.816;5.862;2022-09-29T15:44:38;2.67;;;1.02;;
64789;SDS011;51223;51.816;5.862;2022-09-29T15:47:17;1.50;;;1.38;;
64789;SDS011;51223;51.816;5.862;2022-09-29T15:49:48;1.20;;;0.85;;
64789;SDS011;51223;51.816;5.862;2022-09-29T15:52:16;1.75;;;1.25;;
64789;SDS011;51223;51.816;5.862;2022-09-29T15:54:48;1.08;;;0.93;;
64789;SDS011;51223;51.816;5.862;2022-09-29T16:02:57;2.05;;;1.13;;
64789;SDS011;51223;51.816;5.862;2022-09-29T16:05:28;0.77;;;0.57;;
64789;SDS011;51223;51.816;5.862;2022-09-29T16:10:29;2.53;;;1.15;;
64789;SDS011;51223;51.816;5.862;2022-09-29T16:12:57;1.70;;;1.05;;
64789;SDS011;51223;51.816;5.862;2022-09-29T16:15:33;1.25;;;0.68;;
64789;SDS011;51223;51.816;5.862;2022-09-29T16:18:05;1.10;;;1.00;;
64789;SDS011;51223;51.816;5.862;2022-09-29T16:20:35;2.53;;;1.15;;
64789;SDS011;51223;51.816;5.862;2022-09-29T16:23:07;2.03;;;0.77;;
64789;SDS011;51223;51.816;5.862;2022-09-29T16:28:32;0.65;;;0.55;;
64789;SDS011;51223;51.816;5.862;2022-09-29T16:33:52;0.80;;;0.60;;
64789;SDS011;51223;51.816;5.862;2022-09-29T16:36:20;0.98;;;0.50;;
64789;SDS011;51223;51.816;5.862;2022-09-29T16:38:48;1.40;;;0.80;;
64789;SDS011;51223;51.816;5.862;2022-09-29T16:44:05;1.73;;;0.82;;
64789;SDS011;51223;51.816;5.862;2022-09-29T16:49:51;1.17;;;0.70;;
64789;SDS011;51223;51.816;5.862;2022-09-29T16:58:16;2.53;;;1.35;;
64789;SDS011;51223;51.816;5.862;2022-09-29T17:00:39;1.23;;;0.90;;
64789;SDS011;51223;51.816;5.862;2022-09-29T17:03:05;2.67;;;1.05;;
64789;SDS011;51223;51.816;5.862;2022-09-29T17:05:38;1.38;;;0.95;;
64789;SDS011;51223;51.816;5.862;2022-09-29T17:08:13;7.03;;;1.00;;
64789;SDS011;51223;51.816;5.862;2022-09-29T17:10:42;1.70;;;1.00;;
64789;SDS011;51223;51.816;5.862;2022-09-29T17:13:11;4.90;;;1.00;;
64789;SDS011;51223;51.816;5.862;2022-09-29T17:15:39;2.58;;;1.60;;
64789;SDS011;51223;51.816;5.862;2022-09-29T17:18:07;1.90;;;1.08;;
64789;SDS011;51223;51.816;5.862;2022-09-29T17:20:36;0.95;;;0.80;;
64789;SDS011;51223;51.816;5.862;2022-09-29T17:23:02;1.50;;;1.10;;
64789;SDS011;51223;51.816;5.862;2022-09-29T17:25:29;1.15;;;0.98;;
64789;SDS011;51223;51.816;5.862;2022-09-29T17:27:56;1.48;;;1.20;;
64789;SDS011;51223;51.816;5.862;2022-09-29T17:30:37;0.88;;;0.80;;
64789;SDS011;51223;51.816;5.862;2022-09-29T17:33:04;1.27;;;1.00;;
64789;SDS011;51223;51.816;5.862;2022-09-29T17:35:33;1.58;;;1.10;;
64789;SDS011;51223;51.816;5.862;2022-09-29T17:38:03;1.13;;;1.08;;
64789;SDS011;51223;51.816;5.862;2022-09-29T17:40:42;1.95;;;1.40;;
64789;SDS011;51223;51.816;5.862;2022-09-29T17:43:14;7.97;;;1.63;;
64789;SDS011;51223;51.816;5.862;2022-09-29T17:45:43;2.30;;;1.55;;
64789;SDS011;51223;51.816;5.862;2022-09-29T17:48:10;1.77;;;1.20;;
64789;SDS011;51223;51.816;5.862;2022-09-29T17:50:38;2.00;;;1.27;;
64789;SDS011;51223;51.816;5.862;2022-09-29T17:53:06;1.33;;;0.90;;
64789;SDS011;51223;51.816;5.862;2022-09-29T17:55:34;1.70;;;0.88;;
64789;SDS011;51223;51.816;5.862;2022-09-29T17:58:00;1.17;;;1.08;;
64789;SDS011;51223;51.816;5.862;2022-09-29T18:00:32;3.75;;;1.73;;
64789;SDS011;51223;51.816;5.862;2022-09-29T18:03:03;2.97;;;1.85;;
64789;SDS011;51223;51.816;5.862;2022-09-29T18:05:35;2.10;;;1.38;;
64789;SDS011;51223;51.816;5.862;2022-09-29T18:08:02;7.85;;;1.65;;
64789;SDS011;51223;51.816;5.862;2022-09-29T18:13:05;8.00;;;3.53;;
64789;SDS011;51223;51.816;5.862;2022-09-29T18:15:32;10.20;;;4.45;;
64789;SDS011;51223;51.816;5.862;2022-09-29T18:17:59;7.30;;;4.18;;
64789;SDS011;51223;51.816;5.862;2022-09-29T18:20:28;5.93;;;1.95;;
64789;SDS011;51223;51.816;5.862;2022-09-29T18:22:55;7.07;;;2.38;;
64789;SDS011;51223;51.816;5.862;2022-09-29T18:25:25;5.53;;;1.40;;
64789;SDS011;51223;51.816;5.862;2022-09-29T18:27:55;2.38;;;1.38;;
64789;SDS011;51223;51.816;5.862;2022-09-29T18:30:24;2.67;;;1.70;;
64789;SDS011;51223;51.816;5.862;2022-09-29T18:32:56;5.32;;;1.65;;
64789;SDS011;51223;51.816;5.862;2022-09-29T18:35:24;2.53;;;1.45;;
64789;SDS011;51223;51.816;5.862;2022-09-29T18:37:53;4.68;;;2.83;;
64789;SDS011;51223;51.816;5.862;2022-09-29T18:40:19;5.15;;;1.75;;
64789;SDS011;51223;51.816;5.862;2022-09-29T18:42:47;4.05;;;2.60;;